• Join FlightAware (Why Join?)
  • Login
  • US Flag 
08:30PM EST


 

Airport Tracker/Info


-or-


 

Live Flight TrackerFlight Track Log ✈ AAY229 ✈ 13-May-2013 ✈ KBLI - KLAX

Flight Track Log - Related Links

Times and Time Zones

All times are in EDT time to prevent confusion due to time zone crossing. See the AAY229 flight status page for this flight to view local times or setup timezone preferences in your user account.

Time Position Orientation Groundspeed Altitude Reporting Facility
EDT Latitude Longitude Course Direction KTS MPH feet Rate Location/Type
04:14PM 48.7500 -122.5333 160° South 140 161 1,500  Level Vancouver Center
04:15PM 48.7167 -122.5667 213° Southwest 180 207 3,500 2,050 Climbing Vancouver Center
04:16PM 48.6500 -122.5833 189° South 220 253 5,600 2,606 Climbing Vancouver Center
04:16PM 48.6219 -122.5958 196° South 270 311 7,800 2,372 Climbing Seattle Center
04:17PM 48.1841 -122.6855 163° South  Level FlightAware Approximate
04:17PM 48.5692 -122.6125 192° South 261 300 9,000  Level Seattle Center
04:18PM 48.0850 -122.6415 163° South  Level FlightAware Approximate
04:18PM 48.4992 -122.6342 192° South 261 300 10,500  Level Seattle Center
04:19PM 47.9877 -122.5894 160° South  Level FlightAware Approximate
04:19PM 48.4225 -122.6614 193° South 278 320 11,400  Level Seattle Center
04:20PM 48.3275 -122.6975 194° South 354 407 12,800 1,967 Climbing Seattle Center
04:21PM 48.2258 -122.6956 179° South 381 438 15,400 2,656 Climbing Seattle Center
04:22PM 48.1083 -122.6369 162° South 378 435 18,200 2,262 Climbing Seattle Center
04:23PM 48.0075 -122.5847 161° South 384 442 20,000 1,623 Climbing Seattle Center
04:24PM 47.9011 -122.5331 162° South 401 461 21,500 1,525 Climbing Seattle Center
04:25PM 47.7931 -122.4822 162° South 410 472 23,100 1,869 Climbing Seattle Center
04:26PM 47.6911 -122.4306 161° South 409 471 25,300 2,213 Climbing Seattle Center
04:27PM 47.5722 -122.3692 161° South 404 465 27,600 1,820 Climbing Seattle Center
04:28PM 47.4781 -122.3197 160° South 369 425 29,000 984 Climbing Seattle Center
04:29PM 47.3797 -122.2986 172° South 361 415 29,600 787 Climbing Seattle Center
04:30PM 47.2822 -122.2919 177° South 355 409 30,600 689 Climbing Seattle Center
04:31PM 47.1831 -122.2844 177° South 359 413 31,000 197 Climbing Seattle Center
04:32PM 47.0833 -122.2714 175° South 363 418 31,000  Level Seattle Center
04:34PM 46.9842 -122.2553 174° South 364 419 31,000  Level Seattle Center
04:35PM 46.8653 -122.2411 175° South 360 414 31,000  Level Seattle Center
04:36PM 46.7658 -122.2314 176° South 361 415 31,000  Level Seattle Center
04:37PM 46.6667 -122.2206 176° South 362 417 31,000  Level Seattle Center
04:38PM 46.5686 -122.2081 175° South 358 412 31,000  Level Seattle Center
04:39PM 46.4700 -122.1950 175° South 359 413 31,000 595 Level Seattle Center
04:40PM 46.3714 -122.1844 176° South 360 414 32,200 694 Climbing Seattle Center
04:41PM 46.2728 -122.1722 175° South 360 414 32,400 393 Climbing Seattle Center
04:42PM 46.1542 -122.1575 175° South 371 427 33,000 295 Climbing Seattle Center
04:43PM 46.0531 -122.1450 175° South 367 422 33,000  Level Seattle Center
04:44PM 45.9503 -122.1358 176° South 369 425 33,000  Level Seattle Center
04:45PM 45.8481 -122.1233 175° South 368 423 33,000  Level Seattle Center
04:46PM 45.7431 -122.1108 175° South 378 435 33,000  Level Seattle Center
04:47PM 45.6378 -122.0986 175° South 381 438 33,000  Level Seattle Center
04:48PM 45.5347 -122.0875 176° South 374 430 33,000  Level Seattle Center
04:49PM 45.4303 -122.0761 176° South 376 433 33,000  Level Seattle Center
04:50PM 45.3250 -122.0661 176° South 379 436 33,000  Level Seattle Center
04:51PM 45.2186 -122.0525 175° South 382 440 33,000  Level Seattle Center
04:52PM 45.1097 -122.0383 175° South 392 451 33,000  Level Seattle Center
04:53PM 45.0058 -122.0278 176° South 378 435 33,000  Level Seattle Center
04:54PM 44.8981 -122.0161 176° South 383 441 33,000  Level Seattle Center
04:55PM 44.7908 -122.0036 175° South 372 428 33,000  Level Seattle Center
04:56PM 44.6836 -121.9911 175° South 380 437 33,000  Level Seattle Center
04:57PM 44.5772 -121.9789 175° South 383 441 33,000  Level Seattle Center
04:58PM 44.4706 -121.9672 176° South 382 440 33,000  Level Seattle Center
04:59PM 44.3650 -121.9561 176° South 381 438 33,000  Level Seattle Center
05:00PM 44.2372 -121.9428 176° South 382 440 33,000  Level Seattle Center
05:01PM 44.1308 -121.9303 175° South 382 440 33,000  Level Seattle Center
05:02PM 44.0242 -121.9192 176° South 382 440 33,000  Level Seattle Center
05:03PM 43.9178 -121.9103 177° South 382 440 33,000  Level Seattle Center
05:04PM 43.8131 -121.8989 176° South 378 435 33,000  Level Seattle Center
05:05PM 43.7086 -121.8867 175° South 377 434 33,000  Level Seattle Center
05:06PM 43.6025 -121.8758 176° South 379 436 33,000  Level Seattle Center
05:07PM 43.4964 -121.8647 176° South 380 437 33,000  Level Seattle Center
05:08PM 43.3889 -121.8533 176° South 381 438 33,000  Level Seattle Center
05:09PM 43.2817 -121.8422 176° South 386 444 33,000  Level Seattle Center
05:10PM 43.1733 -121.8303 175° South 390 449 33,000  Level Seattle Center
05:11PM 43.0664 -121.8206 176° South 384 442 33,000  Level Seattle Center
05:12PM 42.9594 -121.8100 176° South 385 443 33,000  Level Seattle Center
05:13PM 42.8508 -121.8011 177° South 389 448 33,000  Level Seattle Center
05:14PM 42.7408 -121.7894 176° South 393 452 33,000  Level Seattle Center
05:15PM 42.6328 -121.7767 175° South 391 450 33,000  Level Seattle Center
05:16PM 42.5253 -121.7653 176° South 388 447 33,000  Level Seattle Center
05:17PM 42.4164 -121.7539 176° South 388 447 33,000  Level Seattle Center
05:18PM 42.3072 -121.7433 176° South 390 449 33,000  Level Seattle Center
05:19PM 42.1992 -121.7319 176° South 388 447 33,000  Level Seattle Center
05:20PM 42.0889 -121.7164 174° South 390 449 33,000  Level Seattle Center
05:21PM 41.9786 -121.6944 172° South 392 451 33,000  Level Seattle Center
05:22PM 41.8692 -121.6739 172° South 391 450 33,000  Level Seattle Center
05:23PM 41.7597 -121.6528 172° South 394 453 33,000  Level Seattle Center
05:24PM 41.6511 -121.6344 173° South 393 452 33,000  Level Seattle Center
05:25PM 41.5397 -121.6142 172° South 394 453 33,000  Level Seattle Center
05:26PM 41.4311 -121.5925 171° South 398 458 33,000  Level Seattle Center
05:27PM 41.2992 -121.5658 171° South 399 459 33,000  Level Seattle Center
05:28PM 41.2564 -121.5583 172° South 397 457 33,000  Level Oakland Center
05:29PM 41.1469 -121.5383 172° South 396 456 33,000  Level Oakland Center
05:29PM 41.0808 -121.5272 173° South 396 456 33,000  Level Seattle Center
05:30PM 40.9703 -121.5061 172° South 398 458 33,000  Level Seattle Center
05:31PM 40.8675 -121.4881 172° South 398 458 33,000  Level Seattle Center
05:32PM 40.8175 -121.4789 172° South 397 457 33,000  Level Oakland Center
05:33PM 40.7069 -121.4589 172° South 398 458 33,000  Level Oakland Center
05:34PM 40.5956 -121.4400 173° South 402 463 33,000  Level Oakland Center
05:35PM 40.4697 -121.4169 172° South 400 460 33,000  Level Oakland Center
05:36PM 40.3578 -121.3958 172° South 403 464 33,000  Level Oakland Center
05:37PM 40.2450 -121.3756 172° South 404 465 33,000  Level Oakland Center
05:38PM 40.1325 -121.3558 172° South 405 466 33,000  Level Oakland Center
05:39PM 40.0206 -121.3383 173° South 403 464 33,000  Level Oakland Center
05:40PM 39.9078 -121.3181 172° South 407 468 33,000  Level Oakland Center
05:41PM 39.7964 -121.2964 171° South 405 466 33,000  Level Oakland Center
05:42PM 39.6842 -121.2772 173° South 405 466 33,000 244 Level Oakland Center
05:43PM 39.5714 -121.2572 172° South 407 468 33,500 541 Climbing Oakland Center
05:44PM 39.4564 -121.2394 173° South 405 466 34,100 732 Climbing Oakland Center
05:45PM 39.3422 -121.2203 173° South 412 474 35,000 439 Climbing Oakland Center
05:46PM 39.2067 -121.1956 172° South 408 470 35,000  Level Oakland Center
05:47PM 39.0931 -121.1764 173° South 413 475 35,000  Level Oakland Center
05:48PM 38.9794 -121.1564 172° South 411 473 35,000  Level Oakland Center
05:49PM 38.8650 -121.1367 172° South 412 474 35,000  Level Oakland Center
05:50PM 38.7503 -121.1178 173° South 412 474 35,000  Level Oakland Center
05:51PM 38.6347 -121.0975 172° South 413 475 35,000  Level Oakland Center
05:52PM 38.5167 -121.0769 172° South 416 479 35,000  Level Oakland Center
05:53PM 38.4000 -121.0575 173° South 417 480 35,000  Level Oakland Center
05:54PM 38.2856 -121.0386 173° South 413 475 35,000  Level Oakland Center
05:55PM 38.1717 -121.0214 173° South 409 471 35,000  Level Oakland Center
05:56PM 38.0581 -120.9989 171° South 411 473 35,000  Level Oakland Center
05:57PM 37.9478 -120.9506 161° South 415 478 35,000  Level Oakland Center
05:58PM 37.8386 -120.9003 160° South 415 478 35,000  Level Oakland Center
05:59PM 37.7281 -120.8517 161° South 419 482 35,000  Level Oakland Center
06:00PM 37.6172 -120.8050 162° South 418 481 35,000  Level Oakland Center
06:01PM 37.4844 -120.7500 162° South 419 482 35,000  Level Oakland Center
06:02PM 37.3742 -120.6994 160° South 421 484 35,000  Level Oakland Center
06:03PM 37.2611 -120.6450 159° South 434 499 35,000  Level Oakland Center
06:04PM 37.1528 -120.5869 157° South 439 505 35,000  Level Oakland Center
06:05PM 37.0439 -120.5297 157° South 423 487 35,000  Level Oakland Center
06:07PM 36.9344 -120.4756 158° South 424 488 35,000  Level Oakland Center
06:08PM 36.8161 -120.4158 158° South 418 481 35,000  Level Oakland Center
06:09PM 36.7133 -120.3625 157° South 431 496 35,000  Level Oakland Center
06:10PM 36.6042 -120.3053 157° South 423 487 35,000  Level Oakland Center
06:11PM 36.4939 -120.2500 158° South 422 486 35,000  Level Oakland Center
06:12PM 36.3833 -120.1944 158° South 429 494 35,000  Level Oakland Center
06:13PM 36.2486 -120.1272 158° South 435 501 35,000  Level Oakland Center
06:14PM 36.1375 -120.0714 158° South 430 495 35,000  Level Oakland Center
06:15PM 36.0272 -120.0161 158° South 428 493 35,000  Level Oakland Center
06:16PM 35.9181 -119.9656 159° South 423 487 35,000  Level Oakland Center
06:17PM 35.8058 -119.9119 159° South 429 494 35,000  Level Oakland Center
06:18PM 35.6939 -119.8550 158° South 431 496 35,000  Level Oakland Center
06:19PM 35.5806 -119.7994 158° South 435 501 35,000  Level Oakland Center
06:20PM 35.4706 -119.7319 153° Southeast 439 505 35,000  Level Oakland Center
06:21PM 35.3686 -119.6514 147° Southeast 436 502 35,000  Level Oakland Center
06:21PM 35.3081 -119.6025 147° Southeast 434 499 35,000  Level Los Angeles Center
06:22PM 35.2067 -119.5233 147° Southeast 429 494 35,000  Level Los Angeles Center
06:23PM 35.1031 -119.4461 149° Southeast 434 499 35,000 -1,016 Level Los Angeles Center
06:24PM 35.0011 -119.3692 148° Southeast 432 497 32,900 -2,468 Descending Los Angeles Center
06:25PM 34.8975 -119.2894 148° Southeast 436 502 29,900 -2,880 Descending Los Angeles Center
06:26PM 34.7908 -119.2078 148° Southeast 449 517 26,900 -2,468 Descending Los Angeles Center
06:27PM 34.7086 -119.1419 147° Southeast 445 512 24,800 -2,613 Descending Los Angeles Center
06:29PM 34.5703 -119.0392 149° Southeast 420 483 21,500 -2,516 Descending Los Angeles Center
06:30PM 34.4947 -118.9836 149° Southeast 400 460 19,600 -2,323 Descending Los Angeles Center
06:31PM 34.3825 -118.9047 150° Southeast 382 440 16,700 -2,496 Descending Los Angeles Center
06:32PM 34.2864 -118.8572 158° South 374 430 14,400 -2,226 Descending Los Angeles Center
06:33PM 34.1711 -118.8139 163° South 361 415 12,100 -1,548 Descending Los Angeles Center
06:34PM 34.0836 -118.7781 161° South 320 368 11,200 -919 Descending Los Angeles Center
06:35PM 34.0431 -118.6967 121° Southeast 284 327 10,200 -774 Descending Los Angeles Center
06:36PM 34.0297 -118.5992 99° East 292 336 9,600 -919 Descending Los Angeles Center
06:37PM 34.0161 -118.4964 99° East 288 331 8,300 -1,452 Descending Los Angeles Center
06:38PM 34.0175 -118.4136 89° East 286 329 6,600 -1,742 Descending Los Angeles Center
06:39PM 34.0317 -118.3211 80° East 282 325 4,700 -1,887 Descending Los Angeles Center
06:40PM 34.0181 -118.2317 100° East 259 298 2,700 -1,113 Descending Los Angeles Center
06:41PM 33.9719 -118.2644 211° Southwest 212 244 2,400 -290 Descending Los Angeles Center